This demonstration page uses our WeatherBlox Daily Observations layout. Learn more.

Left ArrowRight Arrow

39.12711, -84.51439

Hourly Observations for September 17, 2022

Temp ( °F °C ) Dew Point ( °F °C ) Humidity (%) Winds ( mph kmh ) Pressure ( in mb ) Visibility ( mi km ) Precip ( " mm )
12:38 am 00:38 Clear with Mist and Fog 62 16.7 62 16.7 100 100 Calm N/A 3 4 0.00 0.00
12:49 am 00:49 Clear with Mist and Fog 63 17 63 17 100 100 Calm N/A 3 5 0.00 0.00
12:53 am 00:53 Clear with Mist and Fog 62 16.7 61 16.1 96 96 Calm N/A 2 3 0.00 0.00
1:00 am 01:00 Clear with Mist and Fog 62 16.7 62 16.7 100 100 Calm N/A 2 2 0.00 0.00
1:22 am 01:22 Clear with Mist and Fog 62 16.7 61 16.1 96 96 Calm N/A 3 5 0.00 0.00
1:39 am 01:39 Clear with Mist and Fog 61 16.1 61 16.1 100 100 Calm N/A 2 2 0.00 0.00
1:53 am 01:53 Clear with Mist and Fog 61 16.1 61 16.1 100 100 Calm N/A 3 4 0.00 0.00
2:07 am 02:07 Clear with Mist and Fog 61 16.1 61 16.1 100 100 Calm N/A 2 2 0.00 0.00
2:23 am 02:23 Clear with Mist and Fog 61 16.1 61 16.1 100 100 Calm N/A 2 3 0.00 0.00
2:40 am 02:40 Clear with Mist and Fog 60 15.6 60 15.6 100 100 Calm N/A 2 3 0.00 0.00
2:53 am 02:53 Clear with Fog 60 15.6 59 15 96 96 Calm N/A 1 1 0.00 0.00
3:04 am 03:04 Clear with Mist and Fog 60 15.6 59 15 96 96 Calm N/A 1 2 0.00 0.00
3:19 am 03:19 Clear with Mist and Fog 60 15.6 60 15.6 100 100 Calm N/A 1 1 0.00 0.00
3:24 am 03:24 Clear with Mist and Fog 60 15.6 60 15.6 100 100 Calm N/A 2 3 0.00 0.00
3:53 am 03:53 Clear with Mist and Fog 60 15.6 60 15.6 100 100 Calm N/A 2 2 0.00 0.00
4:16 am 04:16 Clear with Mist and Fog 60 15.6 60 15.6 100 100 Calm N/A 1 1 0.00 0.00
4:20 am 04:20 Mostly Clear with Fog 59 15 59 15 100 100 Calm N/A 0 0 0.00 0.00
4:33 am 04:33 Clear with Fog 60 15.6 59 15 96 96 Calm N/A 1 1 0.00 0.00
4:38 am 04:38 Clear with Mist and Fog 60 15.6 60 15.6 100 100 Calm N/A 2 3 0.00 0.00
4:43 am 04:43 Clear with Mist and Fog 60 15.6 59 15 96 96 Calm N/A 1 1 0.00 0.00
4:55 am 04:55 Clear with Mist and Fog 60 15.6 60 15.6 100 100 Calm N/A 2 3 0.00 0.00
5:07 am 05:07 Clear with Mist and Fog 59 15 59 15 100 100 Calm N/A 1 2 0.00 0.00
5:15 am 05:15 Clear with Mist and Fog 59 15 59 15 100 100 Calm N/A 1 1 0.00 0.00
5:33 am 05:33 Clear with Fog 59 15 59 15 100 100 Calm N/A 0 0 0.00 0.00
5:44 am 05:44 Clear with Mist and Fog 59 15 59 15 100 100 Calm N/A 1 2 0.00 0.00
5:53 am 05:53 Clear with Mist and Fog 59 15 59 15 100 100 Calm N/A 1 2 0.00 0.00
6:01 am 06:01 Clear with Fog 58 14.4 58 14.4 100 100 Calm N/A 1 1 0.00 0.00
6:05 am 06:05 Mostly Clear with Fog 59 15 59 15 100 100 Calm N/A 0 0 0.00 0.00
6:27 am 06:27 Clear with Mist and Fog 59 15 59 15 100 100 Calm N/A 3 4 0.00 0.00
6:41 am 06:41 Partly Cloudy with Fog 59 15 59 15 100 100 Calm 30.18 1022 6 10 0.00 0.00
6:53 am 06:53 Partly Cloudy with Fog 57 13.9 57 13.9 100 100 Calm 30.20 1023 3 5 0.00 0.00
7:35 am 07:35 Partly Cloudy with Fog 59 15 59 15 100 100 Calm 30.18 1022 1 1 0.00 0.00
7:53 am 07:53 Cloudy with Patchy Fog 59 15 59 15 100 100 Calm 30.20 1023 1 2 0.00 0.00
8:53 am 08:53 Partly Cloudy with Mist and Fog 62 16.7 62 16.7 100 100 Calm 30.22 1023 5 8 0.00 0.00
9:53 am 09:53 Sunny 68 20 65 18.3 90 90 Calm 30.21 1023 10 16 0.00 0.00
10:53 am 10:53 Sunny 74 23.3 65 18.3 74 74 S 5 7 30.21 1023 9 14 0.00 0.00
11:53 am 11:53 Sunny 79 26.1 64 17.8 60 60 S 5 7 30.19 1022 9 14 0.00 0.00
12:53 pm 12:53 Mostly Sunny 80 26.7 61 16.1 52 52 SW 10 17 30.17 1022 10 16 0.00 0.00
1:53 pm 13:53 Mostly Sunny 83 28.3 62 16.7 49 49 SSW 12 19 30.15 1021 10 16 0.00 0.00
2:53 pm 14:53 Mostly Sunny 84 28.9 61 16.1 46 46 SW 8 13 30.15 1021 10 16 0.00 0.00
3:53 pm 15:53 Mostly Cloudy 82 27.8 61 16.1 49 49 VRB 5 7 30.15 1021 10 16 0.00 0.00
4:53 pm 16:53 Partly Cloudy 81 27.2 61 16.1 51 51 SW 7 11 30.13 1020 10 16 0.00 0.00
5:53 pm 17:53 Sunny 79 26.1 62 16.7 56 56 S 7 11 30.13 1020 10 16 0.00 0.00
6:53 pm 18:53 Mostly Sunny 77 25 62 16.7 60 60 SSW 6 9 30.12 1020 10 16 0.00 0.00
7:53 pm 19:53 Clear 71 21.7 64 17.8 79 79 Calm 30.12 1020 10 16 0.00 0.00
8:53 pm 20:53 Clear 67 19.4 63 17.2 87 87 Calm 30.12 1020 10 16 0.00 0.00
9:53 pm 21:53 Mostly Clear 65 18.3 63 17.2 93 93 Calm 30.13 1020 9 14 0.00 0.00
10:53 pm 22:53 Clear 64 17.8 62 16.7 93 93 Calm 30.13 1020 8 13 0.00 0.00
11:53 pm 23:53 Clear with Mist and Fog 63 17.2 62 16.7 97 97 Calm N/A 5 8 0.00 0.00

Powered by AerisWeather